Eikamaru No.2 — JD3056 — position and weather

sailwx.info

Track history (hours):
 
Tides and Currents Weather Stations Pressure Air Temp Water Temp Dewpoint Dewpoint Depression Visibility Wind Speed Wind Dir Waves Ship Positions

Eikamaru No.2

Last reported at 2016-Jun-21 09:33 UTC. Time now 2016-Jun-26 01:07 UTC.
Position N 35°11' E 139°45'.

Length 60 m; draft 3.3 m.

Type: Tanker. MMSI: 431001342.

Date/timePositionNaut miles runAvg speedWind from/ knotsBaromVisibWave heightAir tempDewpointWater temp
2016-Jun-21 09:33N 35°11' E 139°45'1110.8
2016-Jun-21 08:33N 35°22' E 139°42'1010.0
2016-Jun-21 07:33N 35°31' E 139°46'1 0.4
2016-Jun-21 05:33N 35°32' E 139°46'0 0.0
2016-Jun-21 04:33N 35°32' E 139°46'1 1.0
2016-Jun-21 03:33N 35°31' E 139°46'0 0.0
2016-Jun-21 02:33N 35°31' E 139°46'0 0.0
2016-Jun-21 01:33N 35°31' E 139°46'0 0.0
2016-Jun-21 00:33N 35°31' E 139°46'0 0.0
2016-Jun-20 23:33N 35°31' E 139°46'1 0.7
2016-Jun-20 22:33N 35°30' E 139°47'10 9.7
2016-Jun-20 21:33N 35°35' E 139°57'6 5.8
2016-Jun-20 20:33N 35°41' E 139°59'0 0.0
2016-Jun-20 19:33N 35°41' E 139°59'0 0.0
2016-Jun-20 18:32N 35°41' E 139°59'0 0.0
2016-Jun-20 17:33N 35°41' E 139°59'0 0.0
2016-Jun-20 16:33N 35°41' E 139°59'0 0.0
2016-Jun-20 15:33N 35°41' E 139°59'0 0.0
2016-Jun-20 14:33N 35°41' E 139°59'0 0.0
2016-Jun-20 13:33N 35°41' E 139°59'0 0.0
2016-Jun-20 12:33N 35°41' E 139°59'0 0.0
2016-Jun-20 11:33N 35°41' E 139°59'0 0.0
2016-Jun-20 10:33N 35°41' E 139°59'0 0.0
2016-Jun-20 09:33N 35°41' E 139°59'0 0.0
2016-Jun-20 08:33N 35°41' E 139°59'0 0.0
2016-Jun-20 07:33N 35°41' E 139°59'0 0.0
2016-Jun-20 06:33N 35°41' E 139°59'0 0.0
2016-Jun-20 05:32N 35°41' E 139°59'0 0.0
2016-Jun-20 04:33N 35°41' E 139°59'0 0.0
2016-Jun-20 03:32N 35°41' E 139°59'0 0.0
2016-Jun-20 02:33N 35°41' E 139°59'0 0.0
2016-Jun-20 01:33N 35°41' E 139°59'0 0.0
2016-Jun-20 00:33N 35°41' E 139°59'0 0.0
2016-Jun-19 23:33N 35°41' E 139°59'0 0.0
2016-Jun-19 22:33N 35°41' E 139°59'0 0.0
2016-Jun-19 21:33N 35°41' E 139°59'0 0.0
2016-Jun-19 20:33N 35°41' E 139°59'0 0.0
2016-Jun-19 19:33N 35°41' E 139°59'0 0.0
2016-Jun-19 18:33N 35°41' E 139°59'0 0.0
2016-Jun-19 17:33N 35°41' E 139°59'0 0.0
2016-Jun-19 16:33N 35°41' E 139°59'0 0.0
2016-Jun-19 15:33N 35°41' E 139°59'0 0.0
2016-Jun-19 14:33N 35°41' E 139°59'0 0.0
2016-Jun-19 13:33N 35°41' E 139°59'0 0.0
2016-Jun-19 12:33N 35°41' E 139°59'0 0.0
2016-Jun-19 11:33N 35°41' E 139°59'0 0.0
2016-Jun-19 10:33N 35°41' E 139°59'0 0.0
2016-Jun-19 09:33N 35°41' E 139°59'0 0.0
2016-Jun-19 08:33N 35°41' E 139°59'0 0.0
2016-Jun-19 07:33N 35°41' E 139°59'0 0.0
2016-Jun-19 06:33N 35°41' E 139°59'6 6.0
2016-Jun-19 05:33N 35°35' E 139°57'8 8.4
2016-Jun-19 04:33N 35°29' E 139°49'4 3.8
2016-Jun-19 03:33N 35°32' E 139°45'0 0.0
2016-Jun-19 02:33N 35°32' E 139°45'0 0.0
2016-Jun-19 01:33N 35°32' E 139°45'0 0.0
2016-Jun-19 00:33N 35°32' E 139°45'0 0.0
2016-Jun-18 23:33N 35°32' E 139°45'1 1.1
2016-Jun-18 22:33N 35°31' E 139°46'3 2.9
2016-Jun-18 21:33N 35°29' E 139°49'0 0.0
2016-Jun-18 20:33N 35°29' E 139°49'0 0.1
2016-Jun-18 19:33N 35°29' E 139°49'0 0.0
2016-Jun-18 18:33N 35°29' E 139°49'0 0.0
2016-Jun-18 17:33N 35°29' E 139°49'0 0.0
2016-Jun-18 16:33N 35°29' E 139°49'0 0.0
2016-Jun-18 15:33N 35°29' E 139°49'1 0.9
2016-Jun-18 14:33N 35°29' E 139°49'1111.3
2016-Jun-18 13:33N 35°18' E 139°45'1110.7
2016-Jun-18 12:33N 35°07' E 139°45'1211.3
2016-Jun-18 11:32N 34°59' E 139°34'1111.8
2016-Jun-18 10:33N 34°52' E 139°23'23310.0
2016-Jun-17 11:11N 34°06' E 134°46'  
2016-Jun-13 08:30N 35°08' E 139°42'1010.7
2016-Jun-13 07:33N 35°18' E 139°44'10 9.8
2016-Jun-13 06:33N 35°27' E 139°48'1010.2
2016-Jun-13 05:33N 35°29' E 140°00'1 1.2
2016-Jun-13 04:33N 35°28' E 140°01'0 0.0
2016-Jun-13 03:33N 35°28' E 140°01'0 0.0
2016-Jun-13 02:33N 35°28' E 140°01'0 0.0
2016-Jun-13 01:33N 35°28' E 140°01'0 0.0
2016-Jun-13 00:33N 35°28' E 140°01'0 0.0
2016-Jun-12 23:33N 35°28' E 140°01'0 0.0
2016-Jun-12 22:33N 35°28' E 140°01'0 0.2
2016-Jun-12 21:33N 35°28' E 140°01'7 7.2
2016-Jun-12 20:33N 35°36' E 139°59'5 5.0
2016-Jun-12 19:33N 35°41' E 139°59'0 0.0
2016-Jun-12 18:33N 35°41' E 139°59'0 0.0
2016-Jun-12 17:33N 35°41' E 139°59'0 0.0
2016-Jun-12 16:33N 35°41' E 139°59'0 0.1
2016-Jun-12 15:33N 35°41' E 139°59'0 0.0
2016-Jun-12 14:33N 35°41' E 139°59'0 0.0
2016-Jun-12 13:33N 35°41' E 139°59'0 0.0
2016-Jun-12 12:33N 35°41' E 139°59'0 0.0
2016-Jun-12 11:33N 35°41' E 139°59'0 0.0
2016-Jun-12 10:33N 35°41' E 139°59'0 0.0
2016-Jun-12 09:33N 35°41' E 139°59'0 0.0
2016-Jun-12 08:33N 35°41' E 139°59'0 0.0
2016-Jun-12 07:33N 35°41' E 139°59'0 0.0
2016-Jun-12 06:33N 35°41' E 139°59'0 0.0
2016-Jun-12 04:33N 35°41' E 139°59'0 0.0
2016-Jun-12 03:33N 35°41' E 139°59'0 0.0
2016-Jun-12 02:33N 35°41' E 139°59'0 0.0
2016-Jun-12 01:33N 35°41' E 139°59'0 0.0
2016-Jun-12 00:33N 35°41' E 139°59'0 0.0
2016-Jun-11 23:33N 35°41' E 139°59'0 0.0
2016-Jun-11 22:33N 35°41' E 139°59'0 0.0
2016-Jun-11 21:33N 35°41' E 139°59'0 0.0
2016-Jun-11 20:33N 35°41' E 139°59'0 0.0
2016-Jun-11 19:33N 35°41' E 139°59'0 0.0
2016-Jun-11 18:33N 35°41' E 139°59'0 0.0
2016-Jun-11 17:33N 35°41' E 139°59'0 0.0
2016-Jun-11 16:33N 35°41' E 139°59'0 0.0
2016-Jun-11 15:33N 35°41' E 139°59'0 0.0
2016-Jun-11 14:33N 35°41' E 139°59'0 0.0
2016-Jun-11 13:33N 35°41' E 139°59'0 0.0
2016-Jun-11 12:33N 35°41' E 139°59'0 0.0
2016-Jun-11 11:33N 35°41' E 139°59'0 0.0
2016-Jun-11 10:33N 35°41' E 139°59'  
Track history (hours):
 
Tides and Currents Weather Stations Pressure Air Temp Water Temp Dewpoint Dewpoint Depression Visibility Wind Speed Wind Dir Waves Ship Positions

Eikamaru No.2

Last reported at 2016-Jun-21 09:33 UTC. Time now 2016-Jun-26 01:07 UTC.
Position N 35°11' E 139°45'.

Length 60 m; draft 3.3 m.

Type: Tanker. MMSI: 431001342.

Date/timePositionNaut miles runAvg speedWind from/ knotsBaromVisibWave heightAir tempDewpointWater temp
2016-Jun-21 09:33N 35°11' E 139°45'1110.8
2016-Jun-21 08:33N 35°22' E 139°42'1010.0
2016-Jun-21 07:33N 35°31' E 139°46'1 0.4
2016-Jun-21 05:33N 35°32' E 139°46'0 0.0
2016-Jun-21 04:33N 35°32' E 139°46'1 1.0
2016-Jun-21 03:33N 35°31' E 139°46'0 0.0
2016-Jun-21 02:33N 35°31' E 139°46'0 0.0
2016-Jun-21 01:33N 35°31' E 139°46'0 0.0
2016-Jun-21 00:33N 35°31' E 139°46'0 0.0
2016-Jun-20 23:33N 35°31' E 139°46'1 0.7
2016-Jun-20 22:33N 35°30' E 139°47'10 9.7
2016-Jun-20 21:33N 35°35' E 139°57'6 5.8
2016-Jun-20 20:33N 35°41' E 139°59'0 0.0
2016-Jun-20 19:33N 35°41' E 139°59'0 0.0
2016-Jun-20 18:32N 35°41' E 139°59'0 0.0
2016-Jun-20 17:33N 35°41' E 139°59'0 0.0
2016-Jun-20 16:33N 35°41' E 139°59'0 0.0
2016-Jun-20 15:33N 35°41' E 139°59'0 0.0
2016-Jun-20 14:33N 35°41' E 139°59'0 0.0
2016-Jun-20 13:33N 35°41' E 139°59'0 0.0
2016-Jun-20 12:33N 35°41' E 139°59'0 0.0
2016-Jun-20 11:33N 35°41' E 139°59'0 0.0
2016-Jun-20 10:33N 35°41' E 139°59'0 0.0
2016-Jun-20 09:33N 35°41' E 139°59'0 0.0
2016-Jun-20 08:33N 35°41' E 139°59'0 0.0
2016-Jun-20 07:33N 35°41' E 139°59'0 0.0
2016-Jun-20 06:33N 35°41' E 139°59'0 0.0
2016-Jun-20 05:32N 35°41' E 139°59'0 0.0
2016-Jun-20 04:33N 35°41' E 139°59'0 0.0
2016-Jun-20 03:32N 35°41' E 139°59'0 0.0
2016-Jun-20 02:33N 35°41' E 139°59'0 0.0
2016-Jun-20 01:33N 35°41' E 139°59'0 0.0
2016-Jun-20 00:33N 35°41' E 139°59'0 0.0
2016-Jun-19 23:33N 35°41' E 139°59'0 0.0
2016-Jun-19 22:33N 35°41' E 139°59'0 0.0
2016-Jun-19 21:33N 35°41' E 139°59'0 0.0
2016-Jun-19 20:33N 35°41' E 139°59'0 0.0
2016-Jun-19 19:33N 35°41' E 139°59'0 0.0
2016-Jun-19 18:33N 35°41' E 139°59'0 0.0
2016-Jun-19 17:33N 35°41' E 139°59'0 0.0
2016-Jun-19 16:33N 35°41' E 139°59'0 0.0
2016-Jun-19 15:33N 35°41' E 139°59'0 0.0
2016-Jun-19 14:33N 35°41' E 139°59'0 0.0
2016-Jun-19 13:33N 35°41' E 139°59'0 0.0
2016-Jun-19 12:33N 35°41' E 139°59'0 0.0
2016-Jun-19 11:33N 35°41' E 139°59'0 0.0
2016-Jun-19 10:33N 35°41' E 139°59'0 0.0
2016-Jun-19 09:33N 35°41' E 139°59'0 0.0
2016-Jun-19 08:33N 35°41' E 139°59'0 0.0
2016-Jun-19 07:33N 35°41' E 139°59'0 0.0
2016-Jun-19 06:33N 35°41' E 139°59'6 6.0
2016-Jun-19 05:33N 35°35' E 139°57'8 8.4
2016-Jun-19 04:33N 35°29' E 139°49'4 3.8
2016-Jun-19 03:33N 35°32' E 139°45'0 0.0
2016-Jun-19 02:33N 35°32' E 139°45'0 0.0
2016-Jun-19 01:33N 35°32' E 139°45'0 0.0
2016-Jun-19 00:33N 35°32' E 139°45'0 0.0
2016-Jun-18 23:33N 35°32' E 139°45'1 1.1
2016-Jun-18 22:33N 35°31' E 139°46'3 2.9
2016-Jun-18 21:33N 35°29' E 139°49'0 0.0
2016-Jun-18 20:33N 35°29' E 139°49'0 0.1
2016-Jun-18 19:33N 35°29' E 139°49'0 0.0
2016-Jun-18 18:33N 35°29' E 139°49'0 0.0
2016-Jun-18 17:33N 35°29' E 139°49'0 0.0
2016-Jun-18 16:33N 35°29' E 139°49'0 0.0
2016-Jun-18 15:33N 35°29' E 139°49'1 0.9
2016-Jun-18 14:33N 35°29' E 139°49'1111.3
2016-Jun-18 13:33N 35°18' E 139°45'1110.7
2016-Jun-18 12:33N 35°07' E 139°45'1211.3
2016-Jun-18 11:32N 34°59' E 139°34'1111.8
2016-Jun-18 10:33N 34°52' E 139°23'23310.0
2016-Jun-17 11:11N 34°06' E 134°46'  
2016-Jun-13 08:30N 35°08' E 139°42'1010.7
2016-Jun-13 07:33N 35°18' E 139°44'10 9.8
2016-Jun-13 06:33N 35°27' E 139°48'1010.2
2016-Jun-13 05:33N 35°29' E 140°00'1 1.2
2016-Jun-13 04:33N 35°28' E 140°01'0 0.0
2016-Jun-13 03:33N 35°28' E 140°01'0 0.0
2016-Jun-13 02:33N 35°28' E 140°01'0 0.0
2016-Jun-13 01:33N 35°28' E 140°01'0 0.0
2016-Jun-13 00:33N 35°28' E 140°01'0 0.0
2016-Jun-12 23:33N 35°28' E 140°01'0 0.0
2016-Jun-12 22:33N 35°28' E 140°01'0 0.2
2016-Jun-12 21:33N 35°28' E 140°01'7 7.2
2016-Jun-12 20:33N 35°36' E 139°59'5 5.0
2016-Jun-12 19:33N 35°41' E 139°59'0 0.0
2016-Jun-12 18:33N 35°41' E 139°59'0 0.0
2016-Jun-12 17:33N 35°41' E 139°59'0 0.0
2016-Jun-12 16:33N 35°41' E 139°59'0 0.1
2016-Jun-12 15:33N 35°41' E 139°59'0 0.0
2016-Jun-12 14:33N 35°41' E 139°59'0 0.0
2016-Jun-12 13:33N 35°41' E 139°59'0 0.0
2016-Jun-12 12:33N 35°41' E 139°59'0 0.0
2016-Jun-12 11:33N 35°41' E 139°59'0 0.0
2016-Jun-12 10:33N 35°41' E 139°59'0 0.0
2016-Jun-12 09:33N 35°41' E 139°59'0 0.0
2016-Jun-12 08:33N 35°41' E 139°59'0 0.0
2016-Jun-12 07:33N 35°41' E 139°59'0 0.0
2016-Jun-12 06:33N 35°41' E 139°59'0 0.0
2016-Jun-12 04:33N 35°41' E 139°59'0 0.0
2016-Jun-12 03:33N 35°41' E 139°59'0 0.0
2016-Jun-12 02:33N 35°41' E 139°59'0 0.0
2016-Jun-12 01:33N 35°41' E 139°59'0 0.0
2016-Jun-12 00:33N 35°41' E 139°59'0 0.0
2016-Jun-11 23:33N 35°41' E 139°59'0 0.0
2016-Jun-11 22:33N 35°41' E 139°59'0 0.0
2016-Jun-11 21:33N 35°41' E 139°59'0 0.0
2016-Jun-11 20:33N 35°41' E 139°59'0 0.0
2016-Jun-11 19:33N 35°41' E 139°59'0 0.0
2016-Jun-11 18:33N 35°41' E 139°59'0 0.0
2016-Jun-11 17:33N 35°41' E 139°59'0 0.0
2016-Jun-11 16:33N 35°41' E 139°59'0 0.0
2016-Jun-11 15:33N 35°41' E 139°59'0 0.0
2016-Jun-11 14:33N 35°41' E 139°59'0 0.0
2016-Jun-11 13:33N 35°41' E 139°59'0 0.0
2016-Jun-11 12:33N 35°41' E 139°59'0 0.0
2016-Jun-11 11:33N 35°41' E 139°59'0 0.0
2016-Jun-11 10:33N 35°41' E 139°59'  

Dump ship's entire track history